Time;durP1;ratioP1;P1;durP2;ratioP2;P2;SDS_P1;SDS_P2;PMS_P1;PMS_P2;Temp;Humidity;BMP_temperature;BMP_pressure;BME280_temperature;BME280_humidity;BME280_pressure;Samples;Min_cycle;Max_cycle;Signal;HPM_P1;HPM_P2
2022/12/10 02:57:05;;;;;;;8.33;6.62;;;;;;;2.31;100.00;98991.25;1747980;77;943451;-62
2022/12/10 02:59:40;;;;;;;7.97;6.95;;;;;;;2.24;100.00;99014.33;1757511;80;21607;-58
2022/12/10 03:02:18;;;;;;;8.63;6.55;;;;;;;2.25;100.00;99017.77;1716647;81;21496;-59
2022/12/10 03:05:15;;;;;;;6.80;5.80;;;;;;;2.25;100.00;99027.70;1759482;80;20994;-60
2022/12/10 03:07:55;;;;;;;8.38;5.97;;;;;;;2.24;100.00;99023.83;1742824;80;21580;-59
2022/12/10 03:10:29;;;;;;;7.67;6.72;;;;;;;2.17;100.00;99030.88;1752056;79;21784;-59
2022/12/10 03:13:02;;;;;;;6.33;5.72;;;;;;;2.16;100.00;99029.16;1758395;79;21817;-59
2022/12/10 03:15:33;;;;;;;8.58;6.70;;;;;;;2.17;100.00;99014.02;1754232;79;21109;-58
2022/12/10 03:18:01;;;;;;;5.83;5.03;;;;;;;2.12;100.00;99015.84;1757887;80;20965;-59
2022/12/10 03:20:27;;;;;;;6.00;5.42;;;;;;;1.97;100.00;99009.64;1760354;80;21576;-59
2022/12/10 03:22:54;;;;;;;5.62;5.08;;;;;;;1.96;100.00;99010.09;1748986;80;21572;-59
2022/12/10 03:25:24;;;;;;;7.53;5.47;;;;;;;1.99;100.00;99002.69;1759087;79;21547;-59
2022/12/10 03:27:53;;;;;;;8.78;5.50;;;;;;;2.03;100.00;99005.63;1728934;80;21401;-60
2022/12/10 03:30:20;;;;;;;6.15;5.35;;;;;;;2.06;100.00;99009.48;1765766;80;21509;-60
2022/12/10 03:32:46;;;;;;;5.37;4.67;;;;;;;2.03;100.00;99015.55;1765842;78;21553;-59
2022/12/10 03:35:13;;;;;;;5.65;4.50;;;;;;;2.01;100.00;98997.88;1766575;80;21404;-62
2022/12/10 03:37:40;;;;;;;5.72;4.70;;;;;;;2.03;100.00;98988.33;1765693;79;21535;-59
2022/12/10 03:40:08;;;;;;;6.78;5.47;;;;;;;2.10;100.00;98999.00;1759446;80;21497;-59
2022/12/10 03:42:37;;;;;;;6.15;5.45;;;;;;;2.08;100.00;99000.77;1756161;80;21505;-60
2022/12/10 03:45:05;;;;;;;5.35;4.85;;;;;;;2.06;100.00;99017.26;1758731;80;21466;-60
2022/12/10 03:47:32;;;;;;;6.15;5.35;;;;;;;2.02;100.00;99016.45;1751981;80;21510;-60
2022/12/10 03:49:59;;;;;;;6.45;5.17;;;;;;;2.03;100.00;99016.85;1752052;80;21873;-60
2022/12/10 03:52:25;;;;;;;6.37;5.70;;;;;;;2.06;100.00;99013.37;1762098;80;20997;-58
2022/12/10 03:54:53;;;;;;;7.83;5.70;;;;;;;2.03;100.00;99005.18;1749287;80;21623;-57
2022/12/10 03:57:19;;;;;;;8.08;5.65;;;;;;;2.03;100.00;99008.23;1740983;80;20973;-58
2022/12/10 03:59:46;;;;;;;7.23;5.90;;;;;;;2.01;100.00;99006.11;1757371;80;21697;-58
2022/12/10 04:02:14;;;;;;;5.97;5.28;;;;;;;2.01;100.00;99017.77;1750509;79;21844;-58
2022/12/10 04:04:40;;;;;;;6.92;5.67;;;;;;;1.99;100.00;99011.77;1758682;80;21454;-60
2022/12/10 04:07:07;;;;;;;5.58;4.90;;;;;;;2.00;100.00;99005.26;1750320;80;20988;-60
2022/12/10 04:09:33;;;;;;;5.47;4.92;;;;;;;1.96;100.00;98999.72;1748886;79;21490;-60
2022/12/10 04:12:00;;;;;;;5.85;5.25;;;;;;;1.95;100.00;98997.55;1756411;80;21521;-60
2022/12/10 04:17:12;;;;;;;4.80;4.35;;;;;;;1.89;100.00;98983.86;1751537;80;21406;-58
2022/12/10 04:19:38;;;;;;;5.25;4.75;;;;;;;1.86;100.00;98968.34;1761825;80;21546;-59
2022/12/10 04:27:37;;;;;;;5.42;4.50;;;;;;;1.81;100.00;98950.72;1749179;81;21799;-58
2022/12/10 04:30:07;;;;;;;5.33;4.83;;;;;;;1.82;100.00;98949.84;1749747;80;21557;-59
2022/12/10 04:32:34;;;;;;;5.45;4.58;;;;;;;1.72;100.00;98933.16;1747458;80;21524;-58
2022/12/10 04:35:01;;;;;;;5.30;4.75;;;;;;;1.67;100.00;98930.24;1744113;80;21138;-58
2022/12/10 04:37:27;;;;;;;4.60;4.20;;;;;;;1.66;100.00;98936.33;1762801;79;21486;-58
2022/12/10 04:39:54;;;;;;;4.80;4.28;;;;;;;1.65;100.00;98933.30;1759188;80;21777;-58
2022/12/10 04:42:21;;;;;;;5.37;4.78;;;;;;;1.63;100.00;98930.73;1753224;80;20942;-58
2022/12/10 04:44:49;;;;;;;5.85;5.08;;;;;;;1.64;100.00;98922.09;1742407;80;21441;-59
2022/12/10 04:47:16;;;;;;;5.35;4.70;;;;;;;1.65;100.00;98923.78;1757414;80;21520;-57
2022/12/10 04:49:42;;;;;;;5.20;4.70;;;;;;;1.63;100.00;98917.78;1766662;79;21564;-57
2022/12/10 04:52:11;;;;;;;5.12;4.62;;;;;;;1.57;100.00;98907.53;1750598;80;21784;-58
2022/12/10 04:54:38;;;;;;;4.50;4.10;;;;;;;1.58;100.00;98910.97;1762089;79;21413;-58
2022/12/10 04:57:06;;;;;;;4.53;4.12;;;;;;;1.66;100.00;98900.05;1758956;80;21576;-57
2022/12/10 04:59:33;;;;;;;;;;;;;;;1.69;100.00;98893.04;1751439;79;21584;-58
2022/12/10 05:01:59;;;;;;;3.62;3.33;;;;;;;1.62;100.00;98903.13;1754183;79;20452;-59
2022/12/10 05:04:26;;;;;;;4.22;3.83;;;;;;;1.63;100.00;98902.68;1751539;80;21959;-58
2022/12/10 05:06:52;;;;;;;3.92;3.62;;;;;;;1.58;100.00;98891.09;1747845;80;21394;-58
2022/12/10 05:09:19;;;;;;;3.72;3.42;;;;;;;1.57;100.00;98879.48;1752228;78;21594;-60
2022/12/10 05:11:46;;;;;;;4.00;3.65;;;;;;;1.59;100.00;98873.83;1757294;80;21572;-58
2022/12/10 05:14:14;;;;;;;;;;;;;;;1.57;100.00;98871.26;1754596;80;20977;-59
2022/12/10 05:16:42;;;;;;;3.47;3.17;;;;;;;1.54;100.00;98864.41;1747177;80;21795;-58
2022/12/10 05:19:09;;;;;;;4.75;3.85;;;;;;;1.53;100.00;98869.16;1765037;80;21538;-57
2022/12/10 05:24:21;;;;;;;3.92;3.60;;;;;;;1.55;100.00;98873.87;1752765;80;21456;-58
2022/12/10 05:26:50;;;;;;;3.65;3.30;;;;;;;1.64;100.00;98871.98;1748281;80;21087;-59
2022/12/10 05:29:16;;;;;;;3.70;3.35;;;;;;;1.67;100.00;98866.30;1760115;79;21772;-59
2022/12/10 05:31:42;;;;;;;4.08;3.65;;;;;;;1.61;100.00;98866.88;1765540;80;21593;-58
2022/12/10 05:34:10;;;;;;;3.52;3.22;;;;;;;1.61;100.00;98857.80;1757360;80;21539;-59
2022/12/10 05:36:37;;;;;;;4.22;3.55;;;;;;;1.68;100.00;98859.41;1757800;80;21156;-59
2022/12/10 05:39:03;;;;;;;4.22;3.83;;;;;;;1.74;100.00;98856.23;1761785;80;21568;-59
2022/12/10 05:41:33;;;;;;;4.00;3.33;;;;;;;1.79;100.00;98847.51;1758384;80;21847;-59
2022/12/10 05:44:00;;;;;;;3.87;3.47;;;;;;;1.78;100.00;98844.06;1724671;80;21401;-58
2022/12/10 05:46:29;;;;;;;3.83;3.52;;;;;;;1.80;100.00;98834.52;1763671;79;21504;-59
2022/12/10 05:48:57;;;;;;;3.17;2.90;;;;;;;1.88;100.00;98840.39;1761822;80;21516;-59
2022/12/10 05:51:29;;;;;;;3.65;3.35;;;;;;;1.90;100.00;98838.66;1754435;80;21566;-60
2022/12/10 05:53:57;;;;;;;3.85;3.55;;;;;;;1.87;100.00;98840.45;1748942;80;21937;-60
2022/12/10 05:56:24;;;;;;;3.47;3.17;;;;;;;1.81;100.00;98841.42;1746359;79;21189;-60
2022/12/10 05:58:54;;;;;;;2.95;2.75;;;;;;;1.80;100.00;98837.11;1746608;80;21470;-62
2022/12/10 06:01:25;;;;;;;3.02;2.83;;;;;;;1.80;100.00;98831.08;1749381;79;21033;-61
2022/12/10 06:03:52;;;;;;;3.37;3.12;;;;;;;1.82;100.00;98836.64;1769473;80;21426;-61
2022/12/10 06:06:23;;;;;;;3.20;2.90;;;;;;;1.87;100.00;98841.75;1750789;79;21762;-61
2022/12/10 06:08:50;;;;;;;3.08;2.77;;;;;;;1.80;100.00;98838.41;1766962;79;21602;-61
2022/12/10 06:11:18;;;;;;;3.10;2.90;;;;;;;1.80;100.00;98833.22;1761766;79;20937;-61
2022/12/10 06:13:45;;;;;;;3.20;3.00;;;;;;;1.88;100.00;98839.55;1760471;80;21528;-61
2022/12/10 06:16:13;;;;;;;3.10;2.90;;;;;;;1.92;100.00;98830.39;1753562;80;21575;-63
2022/12/10 06:18:39;;;;;;;;;;;;;;;1.92;100.00;98829.52;1733313;81;21686;-61
2022/12/10 06:21:08;;;;;;;3.08;2.80;;;;;;;1.90;100.00;98832.17;1757113;80;20416;-61
2022/12/10 06:23:37;;;;;;;3.20;3.00;;;;;;;1.89;100.00;98827.01;1752469;80;21501;-61
2022/12/10 06:26:09;;;;;;;3.42;2.80;;;;;;;1.89;100.00;98828.31;1753805;80;21458;-61
2022/12/10 06:28:36;;;;;;;3.17;2.98;;;;;;;1.89;100.00;98821.83;1755669;80;21574;-61
2022/12/10 06:31:03;;;;;;;3.35;3.05;;;;;;;1.92;100.00;98826.50;1767495;80;21900;-63
2022/12/10 06:33:30;;;;;;;2.85;2.62;;;;;;;1.90;100.00;98820.50;1764251;80;21478;-61
2022/12/10 06:35:56;;;;;;;3.22;3.02;;;;;;;1.88;100.00;98818.36;1756284;80;21604;-63
2022/12/10 06:38:25;;;;;;;3.37;3.08;;;;;;;1.88;100.00;98817.06;1759830;80;21560;-61
2022/12/10 06:40:52;;;;;;;3.20;2.90;;;;;;;1.91;100.00;98821.34;1749957;80;21387;-60
2022/12/10 10:40:56;;;;;;;3.37;3.08;;;;;;;1.28;100.00;98603.30;1790999;78;23090;-57
2022/12/10 10:43:30;;;;;;;4.22;3.75;;;;;;;1.45;100.00;98585.22;1708326;83;21557;-58
2022/12/10 10:46:15;;;;;;;4.42;4.03;;;;;;;1.74;100.00;98589.28;1708447;83;21808;-56
2022/12/10 10:48:42;;;;;;;4.72;4.22;;;;;;;1.94;100.00;98585.34;1706059;83;21514;-56
2022/12/10 10:51:20;;;;;;;4.60;4.20;;;;;;;2.14;100.00;98596.06;1706278;83;21502;-56
2022/12/10 10:53:45;;;;;;;3.80;3.50;;;;;;;2.33;100.00;98597.74;1725664;81;21001;-57
2022/12/10 10:56:31;;;;;;;4.87;3.77;;;;;;;2.48;100.00;98595.64;1701997;83;21135;-56
2022/12/10 10:59:08;;;;;;;4.53;4.03;;;;;;;2.62;100.00;98582.28;1702066;83;21974;-56
2022/12/10 11:01:55;;;;;;;3.87;3.58;;;;;;;2.69;100.00;98574.31;1692794;83;26722;-56
2022/12/10 11:04:37;;;;;;;7.65;6.83;;;;;;;2.85;100.00;98578.61;1697560;83;21494;-55
2022/12/10 11:07:07;;;;;;;6.97;6.28;;;;;;;3.01;100.00;98592.45;1700641;83;21486;-56
2022/12/10 11:09:34;;;;;;;8.60;7.80;;;;;;;3.06;100.00;98586.69;1697668;83;21577;-57
2022/12/10 11:12:09;;;;;;;8.60;7.70;;;;;;;3.15;100.00;98579.92;1667233;83;21783;-56
2022/12/10 11:14:43;;;;;;;7.80;6.15;;;;;;;3.21;100.00;98571.09;1695278;83;21586;-58
2022/12/10 11:17:18;;;;;;;5.33;4.85;;;;;;;3.18;100.00;98574.62;1698231;83;20974;-58
2022/12/10 11:20:00;;;;;;;5.25;4.75;;;;;;;3.20;100.00;98570.25;1703681;83;21119;-58
2022/12/10 11:22:33;;;;;;;4.92;4.50;;;;;;;3.25;100.00;98571.41;1692753;83;21471;-59
2022/12/10 11:25:00;;;;;;;5.33;4.75;;;;;;;3.29;100.00;98572.55;1697115;83;21802;-55
2022/12/10 11:28:02;;;;;;;4.80;4.28;;;;;;;3.35;100.00;98577.16;1703057;83;21529;-55
2022/12/10 11:34:15;;;;;;;4.92;4.42;;;;;;;3.34;100.00;98578.92;1691737;83;21569;-56
2022/12/10 11:37:23;;;;;;;4.35;3.95;;;;;;;3.36;100.00;98583.62;1673721;83;21597;-56
2022/12/10 11:40:30;;;;;;;5.20;4.70;;;;;;;3.38;100.00;98577.08;1631061;85;21514;-57
2022/12/10 11:43:27;;;;;;;4.12;3.77;;;;;;;3.45;100.00;98577.30;1693471;84;21054;-55
